Time;durP1;ratioP1;P1;durP2;ratioP2;P2;SDS_P1;SDS_P2;PMS_P1;PMS_P2;Temp;Humidity;BMP_temperature;BMP_pressure;BME280_temperature;BME280_humidity;BME280_pressure;Samples;Min_cycle;Max_cycle;Signal;HPM_P1;HPM_P2
2021/06/17 00:06:25;;;;;;;3.23;2.13;;;;;;;;;;20789749;28;20224;-58
2021/06/17 00:16:25;;;;;;;4.30;2.40;;;;;;;;;;20794439;28;20227;-58
2021/06/17 00:26:26;;;;;;;3.90;2.23;;;;;;;;;;20789613;28;20221;-58
2021/06/17 00:36:26;;;;;;;2.97;2.57;;;;;;;;;;20812229;28;20236;-66
2021/06/17 00:46:26;;;;;;;3.73;2.90;;;;;;;;;;20849035;28;20556;-58
2021/06/17 00:56:27;;;;;;;3.13;2.83;;;;;;;;;;20871028;28;20284;-58
2021/06/17 01:06:27;;;;;;;6.30;3.10;;;;;;;;;;20846941;28;20225;-58
2021/06/17 01:16:40;;;;;;;3.20;2.90;;;;;;;;;;20806935;28;20882;-57
2021/06/17 01:26:43;;;;;;;4.33;2.90;;;;;;;;;;20792340;28;20209;-58
2021/06/17 01:36:48;;;;;;;3.37;3.07;;;;;;;;;;20781803;28;21133;-58
2021/06/17 01:46:49;;;;;;;3.47;2.83;;;;;;;;;;20783051;28;20225;-60
2021/06/17 01:56:51;;;;;;;3.07;2.40;;;;;;;;;;20779723;28;20228;-59
2021/06/17 02:06:51;;;;;;;4.10;3.00;;;;;;;;;;20795692;28;20216;-61
2021/06/17 02:16:52;;;;;;;3.80;2.77;;;;;;;;;;20843064;28;20989;-60
2021/06/17 02:26:56;;;;;;;2.87;2.67;;;;;;;;;;20843646;28;20220;-59
2021/06/17 02:36:56;;;;;;;6.17;2.77;;;;;;;;;;20843961;28;20758;-59
2021/06/17 02:46:57;;;;;;;3.83;2.50;;;;;;;;;;20802729;28;21206;-58
2021/06/17 02:56:57;;;;;;;4.40;2.47;;;;;;;;;;20770722;28;20231;-58
2021/06/17 03:06:58;;;;;;;3.00;2.70;;;;;;;;;;20823835;28;20291;-59
2021/06/17 03:17:00;;;;;;;3.57;3.00;;;;;;;;;;20857079;28;20270;-59
2021/06/17 03:27:01;;;;;;;3.73;2.93;;;;;;;;;;20849398;28;20226;-67
2021/06/17 03:37:02;;;;;;;4.07;3.33;;;;;;;;;;20887296;28;20231;-60
2021/06/17 03:47:03;;;;;;;4.17;2.97;;;;;;;;;;20854494;28;20322;-64
2021/06/17 03:57:05;;;;;;;2.90;2.60;;;;;;;;;;20853203;28;20224;-60
2021/06/17 04:07:07;;;;;;;4.78;2.88;;;;;;;;;;20811192;28;20208;-61
2021/06/17 04:17:08;;;;;;;3.63;3.05;;;;;;;;;;20806347;28;20308;-59
2021/06/17 04:27:09;;;;;;;2.85;2.53;;;;;;;;;;20807501;28;20227;-60
2021/06/17 04:37:14;;;;;;;3.60;3.10;;;;;;;;;;20811740;28;20259;-59
2021/06/17 04:47:15;;;;;;;5.50;2.92;;;;;;;;;;20800690;28;20450;-60
2021/06/17 04:57:15;;;;;;;6.95;2.88;;;;;;;;;;20809641;28;20235;-59
2021/06/17 05:17:16;;;;;;;5.75;2.30;;;;;;;;;;20847343;28;20360;-58
2021/06/17 05:27:16;;;;;;;4.30;1.80;;;;;;;;;;20760917;28;21316;-59
2021/06/17 05:37:17;;;;;;;6.10;1.93;;;;;;;;;;20782815;28;20235;-59
2021/06/17 05:47:17;;;;;;;7.80;2.10;;;;;;;;;;20739164;28;20224;-66
2021/06/17 05:57:17;;;;;;;5.47;1.70;;;;;;;;;;20779946;28;20247;-60
2021/06/17 06:07:18;;;;;;;6.17;1.90;;;;;;;;;;20787371;28;21009;-61
2021/06/17 06:17:18;;;;;;;3.00;1.60;;;;;;;;;;20765415;28;20589;-63
2021/06/17 06:27:20;;;;;;;2.50;1.60;;;;;;;;;;20814608;28;20272;-58
2021/06/17 06:37:20;;;;;;;4.67;1.83;;;;;;;;;;20771555;28;20236;-59
2021/06/17 06:47:20;;;;;;;2.40;1.40;;;;;;;;;;20769115;28;20226;-69
2021/06/17 06:57:21;;;;;;;2.10;0.90;;;;;;;;;;20799290;28;21155;-66
2021/06/17 07:07:21;;;;;;;5.23;1.10;;;;;;;;;;20795630;28;20405;-60
2021/06/17 07:17:21;;;;;;;2.70;1.17;;;;;;;;;;20804018;28;20323;-57
2021/06/17 07:27:22;;;;;;;4.73;1.57;;;;;;;;;;20740290;28;20225;-57
2021/06/17 07:37:22;;;;;;;3.03;1.60;;;;;;;;;;20722464;28;20293;-59
2021/06/17 07:47:23;;;;;;;3.50;1.70;;;;;;;;;;20699108;28;20223;-57
2021/06/17 07:57:23;;;;;;;3.33;1.87;;;;;;;;;;20720918;28;20234;-59
2021/06/17 08:07:24;;;;;;;2.47;1.63;;;;;;;;;;20715465;28;20236;-58
2021/06/17 08:17:24;;;;;;;2.67;2.23;;;;;;;;;;20736291;28;20275;-56
2021/06/17 08:27:24;;;;;;;4.93;2.43;;;;;;;;;;20715403;28;20503;-60
2021/06/17 08:37:25;;;;;;;2.50;1.73;;;;;;;;;;20707814;28;20236;-57
2021/06/17 08:47:26;;;;;;;2.87;2.00;;;;;;;;;;20725260;28;20670;-57
2021/06/17 08:57:26;;;;;;;2.70;2.00;;;;;;;;;;20726220;28;20232;-58
2021/06/17 09:07:32;;;;;;;2.80;1.90;;;;;;;;;;20750468;28;20459;-60
2021/06/17 09:17:32;;;;;;;3.77;2.20;;;;;;;;;;20714027;28;20997;-58
2021/06/17 09:27:35;;;;;;;1.83;1.70;;;;;;;;;;20727095;28;20212;-59
2021/06/17 09:37:37;;;;;;;5.43;2.20;;;;;;;;;;20785112;28;20322;-57
2021/06/17 09:47:38;;;;;;;2.58;1.77;;;;;;;;;;20787508;28;20669;-57
2021/06/17 09:57:38;;;;;;;2.08;1.88;;;;;;;;;;20733163;28;20631;-57
2021/06/17 10:07:38;;;;;;;2.45;1.83;;;;;;;;;;20712385;28;20244;-58
2021/06/17 10:17:39;;;;;;;2.65;1.88;;;;;;;;;;20724387;28;20231;-58
2021/06/17 10:27:42;;;;;;;1.88;1.30;;;;;;;;;;20713229;28;20247;-58
2021/06/17 10:37:50;;;;;;;2.35;1.42;;;;;;;;;;20796366;28;20299;-57
2021/06/17 10:47:51;;;;;;;3.17;1.63;;;;;;;;;;20817751;28;20798;-58
2021/06/17 10:57:56;;;;;;;1.98;1.40;;;;;;;;;;20815880;28;20377;-71
2021/06/17 11:08:15;;;;;;;2.47;1.50;;;;;;;;;;20802409;28;20230;-63
2021/06/17 11:18:35;;;;;;;3.22;1.42;;;;;;;;;;20806915;28;20764;-60
2021/06/17 11:28:49;;;;;;;4.28;1.35;;;;;;;;;;20790623;28;20392;-57
2021/06/17 11:38:51;;;;;;;2.78;1.30;;;;;;;;;;20782286;28;20235;-55
2021/06/17 11:48:52;;;;;;;3.35;1.40;;;;;;;;;;20794082;28;20270;-61
2021/06/17 11:58:52;;;;;;;2.63;1.40;;;;;;;;;;20803689;28;20243;-57
2021/06/17 12:09:06;;;;;;;2.42;1.30;;;;;;;;;;20801662;28;20206;-61
2021/06/17 12:19:16;;;;;;;1.25;0.98;;;;;;;;;;20790764;28;21207;-62
2021/06/17 12:29:17;;;;;;;2.50;1.20;;;;;;;;;;20817720;28;20228;-58
2021/06/17 12:39:19;;;;;;;2.17;1.00;;;;;;;;;;20777869;28;20293;-56
2021/06/17 12:59:38;;;;;;;1.45;1.35;;;;;;;;;;20854494;28;20232;-61
2021/06/17 13:09:38;;;;;;;1.13;1.13;;;;;;;;;;20787821;28;20668;-60
2021/06/17 13:19:49;;;;;;;2.50;1.10;;;;;;;;;;20826282;28;20227;-59
2021/06/17 13:30:02;;;;;;;2.63;1.40;;;;;;;;;;20824160;28;20294;-56
2021/06/17 13:40:02;;;;;;;3.38;1.05;;;;;;;;;;20707659;28;20850;-59
2021/06/17 13:50:03;;;;;;;1.20;1.10;;;;;;;;;;20684801;28;20244;-61
2021/06/17 14:00:04;;;;;;;1.33;1.20;;;;;;;;;;20700622;28;20232;-58
2021/06/17 14:10:05;;;;;;;2.40;1.08;;;;;;;;;;20715417;28;20483;-60
2021/06/17 14:25:36;;;;;;;1.48;1.10;;;;;;;;;;20911125;27;20585;-63
2021/06/17 14:35:38;;;;;;;1.50;1.10;;;;;;;;;;20921722;28;20219;-66
2021/06/17 14:45:39;;;;;;;1.83;1.45;;;;;;;;;;20943364;28;20551;-65
2021/06/17 14:55:39;;;;;;;5.35;1.70;;;;;;;;;;20866367;28;20226;-57
2021/06/17 15:05:39;;;;;;;1.67;1.25;;;;;;;;;;20858766;28;20204;-61
2021/06/17 15:15:40;;;;;;;3.90;1.55;;;;;;;;;;20861471;28;20283;-61
2021/06/17 15:25:40;;;;;;;3.70;1.63;;;;;;;;;;20872020;28;20211;-55
2021/06/17 15:35:41;;;;;;;2.33;1.17;;;;;;;;;;20815783;28;20291;-56
2021/06/17 15:45:42;;;;;;;1.70;1.27;;;;;;;;;;20807226;28;20209;-56
2021/06/17 15:55:42;;;;;;;1.80;1.15;;;;;;;;;;20817350;28;20705;-57
2021/06/17 16:05:42;;;;;;;2.00;1.25;;;;;;;;;;20799224;28;20219;-59
2021/06/17 16:15:43;;;;;;;6.63;1.30;;;;;;;;;;20824125;28;20203;-57
2021/06/17 16:25:43;;;;;;;1.00;0.88;;;;;;;;;;20876166;28;20216;-63
2021/06/17 16:35:44;;;;;;;3.88;1.10;;;;;;;;;;20899116;28;20211;-59
2021/06/17 16:45:45;;;;;;;0.95;0.95;;;;;;;;;;20878564;28;21061;-58
2021/06/17 16:55:46;;;;;;;1.52;0.90;;;;;;;;;;20845676;28;20345;-66
2021/06/17 17:05:46;;;;;;;1.25;0.90;;;;;;;;;;20789518;28;20630;-60
2021/06/17 17:15:46;;;;;;;2.30;1.00;;;;;;;;;;20802188;28;20288;-59
2021/06/17 17:25:47;;;;;;;5.25;1.02;;;;;;;;;;20807667;28;20218;-59
2021/06/17 17:35:47;;;;;;;0.93;0.90;;;;;;;;;;20792438;28;20322;-59
2021/06/17 17:45:47;;;;;;;2.55;1.10;;;;;;;;;;20811581;28;20669;-64
2021/06/17 17:55:48;;;;;;;1.83;1.02;;;;;;;;;;20787890;28;20216;-59
2021/06/17 18:05:48;;;;;;;1.23;0.90;;;;;;;;;;20810079;28;20595;-60
2021/06/17 18:15:59;;;;;;;2.88;0.88;;;;;;;;;;20790200;28;20841;-57
2021/06/17 18:25:59;;;;;;;1.15;1.05;;;;;;;;;;20807080;28;20226;-58
2021/06/17 18:35:59;;;;;;;2.30;1.52;;;;;;;;;;20787860;28;20219;-59
2021/06/17 18:46:00;;;;;;;3.53;1.30;;;;;;;;;;20798355;28;20993;-58
2021/06/17 18:56:01;;;;;;;3.13;1.47;;;;;;;;;;20802749;28;20216;-58
2021/06/17 19:06:01;;;;;;;2.07;1.60;;;;;;;;;;20794432;28;20235;-57
2021/06/17 19:16:03;;;;;;;3.60;1.73;;;;;;;;;;20822526;28;20232;-57
2021/06/17 19:26:03;;;;;;;3.37;1.50;;;;;;;;;;20830623;28;20220;-59
2021/06/17 19:36:05;;;;;;;1.60;1.50;;;;;;;;;;20823515;28;20228;-62
2021/06/17 19:46:05;;;;;;;7.57;2.20;;;;;;;;;;20826558;28;20517;-63
2021/06/17 19:56:14;;;;;;;11.37;2.30;;;;;;;;;;20831431;28;20216;-58
2021/06/17 20:06:16;;;;;;;2.60;1.83;;;;;;;;;;20830886;28;20415;-57
2021/06/17 20:16:16;;;;;;;5.27;2.17;;;;;;;;;;20829683;28;20247;-60
2021/06/17 20:26:16;;;;;;;2.60;1.90;;;;;;;;;;20829236;28;20248;-57
2021/06/17 20:36:17;;;;;;;4.93;2.37;;;;;;;;;;20828449;28;20237;-58
2021/06/17 20:46:17;;;;;;;4.57;2.30;;;;;;;;;;20827448;28;20297;-57
2021/06/17 20:56:17;;;;;;;4.13;2.43;;;;;;;;;;20826794;28;20229;-56
2021/06/17 21:06:18;;;;;;;3.47;2.47;;;;;;;;;;20826296;28;20220;-56
2021/06/17 21:16:18;;;;;;;3.27;2.53;;;;;;;;;;20825484;28;20240;-59
2021/06/17 21:26:19;;;;;;;5.83;2.53;;;;;;;;;;20824274;28;20274;-58
2021/06/17 21:36:19;;;;;;;4.63;2.70;;;;;;;;;;20824444;28;20674;-62
2021/06/17 21:46:19;;;;;;;3.27;2.70;;;;;;;;;;20823732;28;20218;-57
2021/06/17 21:56:20;;;;;;;4.23;2.60;;;;;;;;;;20823172;28;20224;-58
2021/06/17 22:06:22;;;;;;;5.13;2.40;;;;;;;;;;20822643;28;20208;-65
2021/06/17 22:16:22;;;;;;;6.17;2.87;;;;;;;;;;20821594;28;20235;-60
2021/06/17 22:26:22;;;;;;;6.03;2.80;;;;;;;;;;20821646;28;20637;-59
2021/06/17 22:36:23;;;;;;;5.47;2.57;;;;;;;;;;20821347;28;20243;-58
2021/06/17 22:46:23;;;;;;;3.13;2.83;;;;;;;;;;20835843;28;20242;-70
2021/06/17 22:56:23;;;;;;;3.20;2.87;;;;;;;;;;20836644;28;20252;-58
2021/06/17 23:06:24;;;;;;;3.20;2.80;;;;;;;;;;20835960;28;20565;-58
2021/06/17 23:16:24;;;;;;;4.20;3.03;;;;;;;;;;20835025;28;20227;-58
2021/06/17 23:26:24;;;;;;;5.37;3.57;;;;;;;;;;20834622;28;20354;-61
2021/06/17 23:36:25;;;;;;;5.33;3.70;;;;;;;;;;20833542;28;20311;-57
2021/06/17 23:46:25;;;;;;;5.23;3.93;;;;;;;;;;20833132;28;20298;-58
2021/06/17 23:56:25;;;;;;;4.37;3.93;;;;;;;;;;20831478;28;20250;-58
